createdAt,value
2022-11-29T00:01:44.207Z,18.10
2022-11-29T00:04:19.516Z,17.90
2022-11-29T00:07:12.253Z,17.27
2022-11-29T00:09:44.672Z,18.77
2022-11-29T00:12:15.517Z,17.63
2022-11-29T00:14:43.977Z,17.70
2022-11-29T00:17:12.682Z,17.40
2022-11-29T00:19:40.998Z,17.83
2022-11-29T00:22:10.285Z,17.83
2022-11-29T00:24:42.722Z,17.03
2022-11-29T00:27:14.645Z,16.27
2022-11-29T00:29:42.739Z,18.03
2022-11-29T00:32:11.132Z,16.27
2022-11-29T00:34:39.369Z,17.10
2022-11-29T00:37:09.993Z,17.40
2022-11-29T00:39:38.096Z,17.00
2022-11-29T00:42:06.155Z,16.57
2022-11-29T00:44:36.569Z,16.57
2022-11-29T00:47:06.226Z,16.70
2022-11-29T00:49:34.859Z,15.73
2022-11-29T00:52:03.541Z,17.07
2022-11-29T00:54:32.963Z,16.70
2022-11-29T00:57:08.518Z,17.33
2022-11-29T00:59:38.268Z,17.53
2022-11-29T01:02:06.314Z,17.07
2022-11-29T01:04:54.747Z,16.77
2022-11-29T01:07:24.876Z,17.00
2022-11-29T01:09:53.189Z,17.70
2022-11-29T01:12:22.412Z,16.77
2022-11-29T01:14:53.066Z,16.27
2022-11-29T01:17:21.455Z,15.77
2022-11-29T01:19:51.017Z,15.40
2022-11-29T01:22:19.755Z,15.60
2022-11-29T01:24:50.337Z,15.83
2022-11-29T01:27:19.721Z,15.60
2022-11-29T01:29:47.883Z,16.30
2022-11-29T01:32:17.334Z,16.53
2022-11-29T01:34:48.067Z,15.90
2022-11-29T01:37:16.041Z,16.77
2022-11-29T01:39:46.766Z,18.10
2022-11-29T01:42:20.639Z,17.43
2022-11-29T01:45:10.611Z,17.20
2022-11-29T01:47:45.367Z,18.27
2022-11-29T01:50:16.197Z,17.83
2022-11-29T01:53:09.981Z,19.27
2022-11-29T01:55:43.239Z,15.83
2022-11-29T01:58:11.881Z,18.00
2022-11-29T02:00:40.534Z,16.73
2022-11-29T02:03:17.665Z,15.13
2022-11-29T02:05:50.525Z,15.73
2022-11-29T02:08:24.362Z,14.33
2022-11-29T02:11:08.610Z,15.93
2022-11-29T02:13:44.088Z,15.20
2022-11-29T02:16:19.739Z,12.97
2022-11-29T02:18:58.733Z,13.40
2022-11-29T02:21:45.216Z,13.13
2022-11-29T02:24:59.387Z,12.00
2022-11-29T02:27:53.674Z,11.73
2022-11-29T02:30:31.432Z,12.47
2022-11-29T02:33:38.591Z,11.03
2022-11-29T02:36:43.100Z,10.80
2022-11-29T02:39:44.303Z,10.77
2022-11-29T02:42:56.214Z,10.27
2022-11-29T02:45:59.837Z,10.73
2022-11-29T02:48:48.188Z,10.43
2022-11-29T02:51:37.502Z,10.67
2022-11-29T02:54:14.402Z,10.10
2022-11-29T02:56:48.703Z,10.07
2022-11-29T02:59:31.959Z,10.37
2022-11-29T03:02:11.855Z,9.70
2022-11-29T03:05:11.337Z,11.10
2022-11-29T03:07:50.181Z,10.07
2022-11-29T03:10:30.533Z,9.80
2022-11-29T03:13:01.154Z,10.93
2022-11-29T03:15:33.057Z,10.20
2022-11-29T03:18:28.980Z,9.87
2022-11-29T03:21:21.846Z,10.00
2022-11-29T03:23:54.872Z,10.57
2022-11-29T03:26:28.524Z,10.80
2022-11-29T03:29:01.910Z,10.30
2022-11-29T03:31:55.256Z,10.20
2022-11-29T03:34:57.721Z,10.07
2022-11-29T03:37:34.140Z,10.63
2022-11-29T03:40:10.927Z,10.23
2022-11-29T03:42:48.447Z,10.97
2022-11-29T03:45:28.634Z,11.57
2022-11-29T03:48:24.328Z,11.27
2022-11-29T03:51:16.202Z,10.77
2022-11-29T03:53:52.387Z,11.93
2022-11-29T03:56:31.017Z,10.57
2022-11-29T03:59:09.838Z,11.60
2022-11-29T04:02:32.208Z,11.07
2022-11-29T04:06:04.710Z,10.77
2022-11-29T04:08:58.898Z,11.07
2022-11-29T04:12:09.143Z,9.83
2022-11-29T04:15:19.836Z,9.30
2022-11-29T04:18:42.636Z,10.60
2022-11-29T04:21:52.821Z,10.67
2022-11-29T04:28:14.655Z,11.43
2022-11-29T04:38:09.863Z,12.07
2022-11-29T04:41:09.993Z,12.30
2022-11-29T04:44:15.715Z,11.40
2022-11-29T04:50:49.748Z,13.33
2022-11-29T04:53:49.156Z,14.43
2022-11-29T04:56:46.765Z,14.03
2022-11-29T04:59:25.394Z,15.70
2022-11-29T05:02:05.240Z,14.53
2022-11-29T05:04:41.703Z,16.67
2022-11-29T05:07:18.364Z,18.13
2022-11-29T05:10:01.077Z,17.73
2022-11-29T05:12:35.537Z,18.13
2022-11-29T05:15:55.842Z,18.83
2022-11-29T05:19:07.655Z,18.07
2022-11-29T05:21:51.500Z,18.20
2022-11-29T05:24:33.739Z,17.87
2022-11-29T05:27:11.955Z,18.60
2022-11-29T05:29:51.134Z,16.17
2022-11-29T05:32:52.803Z,14.53
2022-11-29T05:35:54.409Z,14.37
2022-11-29T05:38:48.074Z,14.63
2022-11-29T05:41:58.826Z,16.73
2022-11-29T05:44:37.928Z,15.90
2022-11-29T05:47:10.262Z,14.07
2022-11-29T05:49:46.050Z,16.97
2022-11-29T05:52:37.706Z,16.60
2022-11-29T05:55:24.010Z,16.00
2022-11-29T05:57:57.554Z,16.57
2022-11-29T06:00:29.344Z,14.73
2022-11-29T06:03:03.840Z,14.90
2022-11-29T06:05:40.138Z,16.87
2022-11-29T06:08:15.115Z,15.53
2022-11-29T06:10:56.688Z,14.83
2022-11-29T06:13:37.899Z,14.70
2022-11-29T06:16:20.205Z,14.50
2022-11-29T06:19:08.193Z,14.90
2022-11-29T06:21:41.478Z,13.57
2022-11-29T06:24:26.229Z,14.10
2022-11-29T06:27:24.078Z,13.93
2022-11-29T06:30:00.959Z,14.33
2022-11-29T06:32:40.301Z,13.67
2022-11-29T06:35:19.025Z,14.53
2022-11-29T06:37:51.486Z,13.30
2022-11-29T06:40:19.525Z,13.70
2022-11-29T06:42:48.863Z,13.67
2022-11-29T06:45:18.276Z,14.43
2022-11-29T06:47:50.504Z,13.77
2022-11-29T06:50:35.433Z,13.67
2022-11-29T06:53:11.956Z,13.93
2022-11-29T06:55:46.528Z,13.67
2022-11-29T06:58:36.076Z,14.40
2022-11-29T07:01:14.344Z,14.13
2022-11-29T07:04:12.946Z,15.20
2022-11-29T07:06:41.434Z,14.63
2022-11-29T07:09:15.780Z,13.77
2022-11-29T07:11:44.774Z,14.53
2022-11-29T07:14:14.033Z,15.00
2022-11-29T07:16:57.018Z,14.20
2022-11-29T07:19:34.246Z,14.50
2022-11-29T07:22:10.262Z,14.37
2022-11-29T07:24:55.019Z,15.10
2022-11-29T07:27:31.876Z,13.87
2022-11-29T07:30:11.006Z,15.20
2022-11-29T07:32:52.046Z,15.30
2022-11-29T07:35:30.389Z,15.87
2022-11-29T07:38:06.122Z,15.53
2022-11-29T07:40:45.456Z,15.70
2022-11-29T07:43:25.677Z,16.37
2022-11-29T07:45:54.151Z,14.67
2022-11-29T07:48:22.188Z,15.37
2022-11-29T07:50:50.337Z,15.20
2022-11-29T07:53:19.722Z,15.60
2022-11-29T07:55:49.507Z,15.60
2022-11-29T07:58:19.006Z,14.97
2022-11-29T08:00:47.425Z,15.13
2022-11-29T08:03:15.472Z,14.93
2022-11-29T08:05:47.094Z,14.93
2022-11-29T08:08:16.660Z,17.00
2022-11-29T08:10:45.378Z,16.90
2022-11-29T08:13:15.213Z,16.67
2022-11-29T08:15:45.891Z,16.33
2022-11-29T08:18:14.275Z,15.30
2022-11-29T08:20:42.656Z,16.70
2022-11-29T08:23:13.395Z,16.90
2022-11-29T08:25:41.364Z,16.67
2022-11-29T08:28:09.585Z,17.97
2022-11-29T08:30:39.671Z,16.00
2022-11-29T08:33:07.992Z,14.97
2022-11-29T08:35:36.508Z,18.93
2022-11-29T08:38:05.151Z,19.20
2022-11-29T08:40:33.741Z,16.00
2022-11-29T08:43:02.101Z,14.93
2022-11-29T08:45:30.431Z,18.07
2022-11-29T08:48:00.838Z,18.07
2022-11-29T08:50:28.801Z,17.07
2022-11-29T08:53:16.757Z,15.60
2022-11-29T08:55:46.545Z,17.27
2022-11-29T08:58:17.278Z,17.43
2022-11-29T09:00:47.023Z,17.20
2022-11-29T09:03:34.093Z,17.57
2022-11-29T09:06:12.003Z,15.73
2022-11-29T09:08:40.627Z,15.57
2022-11-29T09:11:13.236Z,16.60
2022-11-29T09:13:42.976Z,17.47
2022-11-29T09:16:13.373Z,17.80
2022-11-29T09:18:48.536Z,17.23
2022-11-29T09:21:19.577Z,16.63
2022-11-29T09:23:47.782Z,15.97
2022-11-29T09:26:18.961Z,16.50
2022-11-29T09:28:47.367Z,16.47
2022-11-29T09:31:17.180Z,15.70
2022-11-29T09:33:46.648Z,15.27
2022-11-29T09:36:14.891Z,15.70
2022-11-29T09:38:43.625Z,17.90
2022-11-29T09:41:33.340Z,15.67
2022-11-29T09:44:09.611Z,15.50
2022-11-29T09:46:46.429Z,15.13
2022-11-29T09:49:53.885Z,14.73
2022-11-29T09:52:35.291Z,15.33
2022-11-29T09:55:22.213Z,13.50
2022-11-29T09:58:12.605Z,16.00
2022-11-29T10:00:49.579Z,16.33
2022-11-29T10:03:25.490Z,16.17
2022-11-29T10:06:01.323Z,15.70
2022-11-29T10:08:35.049Z,16.90
2022-11-29T10:11:15.352Z,15.97
2022-11-29T10:13:48.889Z,16.17
2022-11-29T10:16:23.587Z,14.00
2022-11-29T10:18:57.097Z,15.67
2022-11-29T10:21:31.471Z,15.40
2022-11-29T10:24:04.922Z,15.17
2022-11-29T10:26:35.561Z,15.23
2022-11-29T10:29:04.102Z,16.07
2022-11-29T10:31:37.747Z,16.87
2022-11-29T10:34:14.218Z,16.60
2022-11-29T10:36:47.576Z,15.63
2022-11-29T10:39:24.567Z,13.97
2022-11-29T10:41:58.087Z,13.90
2022-11-29T10:44:27.250Z,15.50
2022-11-29T10:46:56.530Z,14.93
2022-11-29T10:49:30.322Z,15.37
2022-11-29T10:52:00.447Z,15.80
2022-11-29T10:54:35.863Z,15.10
2022-11-29T10:57:09.607Z,15.20
2022-11-29T10:59:37.645Z,15.53
2022-11-29T11:02:06.640Z,15.53
2022-11-29T11:04:37.988Z,15.03
2022-11-29T11:07:08.668Z,16.10
2022-11-29T11:09:39.581Z,15.87
2022-11-29T11:12:17.966Z,16.17
2022-11-29T11:14:47.113Z,16.73
2022-11-29T11:17:22.759Z,17.10
2022-11-29T11:19:58.209Z,17.03
2022-11-29T11:22:29.734Z,17.67
2022-11-29T11:25:00.631Z,17.67
2022-11-29T11:27:33.550Z,18.10
2022-11-29T11:30:03.215Z,16.90
2022-11-29T11:32:31.495Z,17.27
2022-11-29T11:35:02.755Z,17.40
2022-11-29T11:37:36.118Z,17.10
2022-11-29T11:40:20.748Z,17.33
2022-11-29T11:42:49.336Z,17.10
2022-11-29T11:45:28.868Z,18.83
2022-11-29T11:48:00.033Z,18.53
2022-11-29T11:50:31.912Z,19.70
2022-11-29T11:53:06.302Z,18.00
2022-11-29T11:55:38.623Z,18.90
2022-11-29T11:58:18.987Z,17.10
2022-11-29T12:01:06.231Z,17.63
2022-11-29T12:03:40.303Z,16.43
2022-11-29T12:06:28.359Z,17.00
2022-11-29T12:09:03.583Z,15.50
2022-11-29T12:11:39.958Z,15.33
2022-11-29T12:14:09.292Z,15.27
2022-11-29T12:16:40.467Z,14.90
2022-11-29T12:19:15.765Z,14.70
2022-11-29T12:21:48.839Z,14.17
2022-11-29T12:24:26.372Z,13.73
2022-11-29T12:26:58.507Z,14.50
2022-11-29T12:29:33.575Z,14.43
2022-11-29T12:32:15.902Z,14.13
2022-11-29T12:35:02.227Z,13.83
2022-11-29T12:37:37.124Z,13.83
2022-11-29T12:40:12.773Z,14.23
2022-11-29T12:42:51.687Z,13.13
2022-11-29T12:45:30.983Z,13.03
2022-11-29T12:48:08.995Z,14.13
2022-11-29T12:50:46.442Z,13.77
2022-11-29T12:53:39.223Z,14.20
2022-11-29T12:56:16.659Z,13.00
2022-11-29T12:58:57.402Z,14.07
2022-11-29T13:01:32.890Z,16.53
2022-11-29T13:04:13.770Z,16.40
2022-11-29T13:06:48.727Z,16.27
2022-11-29T13:10:02.605Z,16.03
2022-11-29T13:12:38.564Z,15.87
2022-11-29T13:15:13.083Z,16.13
2022-11-29T13:17:47.646Z,16.40
2022-11-29T13:20:38.113Z,15.83
2022-11-29T13:23:15.697Z,16.00
2022-11-29T13:25:47.926Z,17.07
2022-11-29T13:28:24.278Z,17.63
2022-11-29T13:30:54.024Z,19.80
2022-11-29T13:33:28.381Z,18.10
2022-11-29T13:36:07.166Z,18.33
2022-11-29T13:38:41.869Z,19.17
2022-11-29T13:41:21.074Z,19.13
2022-11-29T13:43:59.093Z,18.17
2022-11-29T13:46:34.222Z,19.07
2022-11-29T13:49:02.501Z,19.27
2022-11-29T13:51:34.373Z,17.83
2022-11-29T13:54:04.447Z,18.33
2022-11-29T13:56:43.340Z,18.10
2022-11-29T13:59:20.302Z,18.73
2022-11-29T14:01:50.520Z,19.30
2022-11-29T14:04:37.653Z,19.27
2022-11-29T14:07:10.338Z,18.50
2022-11-29T14:09:58.433Z,18.90
2022-11-29T14:12:38.336Z,19.50
2022-11-29T14:15:28.762Z,18.43
2022-11-29T14:17:58.806Z,19.07
2022-11-29T14:20:46.579Z,20.77
2022-11-29T14:23:32.409Z,19.17
2022-11-29T14:26:31.985Z,20.20
2022-11-29T14:29:00.718Z,20.37
2022-11-29T14:31:54.458Z,19.10
2022-11-29T14:34:35.989Z,19.53
2022-11-29T14:37:15.605Z,19.70
2022-11-29T14:39:46.846Z,19.77
2022-11-29T14:42:18.985Z,18.47
2022-11-29T14:44:51.199Z,19.57
2022-11-29T14:47:29.772Z,21.77
2022-11-29T14:49:59.503Z,20.23
2022-11-29T14:52:30.282Z,20.30
2022-11-29T14:55:06.790Z,21.50
2022-11-29T14:57:54.297Z,20.53
2022-11-29T15:00:24.513Z,19.27
2022-11-29T15:02:57.114Z,19.97
2022-11-29T15:05:32.265Z,19.47
2022-11-29T15:08:09.613Z,20.03
2022-11-29T15:10:41.152Z,20.73
2022-11-29T15:13:14.088Z,20.50
2022-11-29T15:16:15.127Z,19.47
2022-11-29T15:19:13.858Z,19.97
2022-11-29T15:21:51.606Z,21.87
2022-11-29T15:24:24.992Z,21.23
2022-11-29T15:26:57.373Z,21.53
2022-11-29T15:29:26.059Z,21.77
2022-11-29T15:31:55.994Z,22.43
2022-11-29T15:34:32.652Z,19.43
2022-11-29T15:37:01.415Z,24.90
2022-11-29T15:39:32.272Z,22.40
2022-11-29T15:42:05.358Z,21.60
2022-11-29T15:44:33.856Z,21.43
2022-11-29T15:47:22.115Z,21.63
2022-11-29T15:49:52.130Z,21.60
2022-11-29T15:52:29.091Z,21.47
2022-11-29T15:55:01.629Z,20.20
2022-11-29T15:57:34.790Z,19.63
2022-11-29T16:00:06.684Z,20.83
2022-11-29T16:02:37.053Z,20.47
2022-11-29T16:05:15.648Z,19.00
2022-11-29T16:07:45.268Z,17.50
2022-11-29T16:10:17.554Z,18.60
2022-11-29T16:12:54.245Z,18.30
2022-11-29T16:15:29.008Z,17.90
2022-11-29T16:17:57.396Z,16.30
2022-11-29T16:20:28.113Z,15.63
2022-11-29T16:23:11.533Z,14.07
2022-11-29T16:25:56.739Z,14.40
2022-11-29T16:28:28.548Z,13.03
2022-11-29T16:30:57.269Z,13.40
2022-11-29T16:33:26.127Z,13.30
2022-11-29T16:36:07.103Z,13.23
2022-11-29T16:38:35.924Z,13.13
2022-11-29T16:41:08.685Z,13.70
2022-11-29T16:43:54.091Z,12.90
2022-11-29T16:46:30.178Z,12.93
2022-11-29T16:49:00.815Z,13.27
2022-11-29T16:51:37.859Z,13.90
2022-11-29T16:54:24.521Z,13.27
2022-11-29T16:56:53.993Z,13.70
2022-11-29T17:02:17.101Z,13.47
2022-11-29T17:04:45.651Z,13.33
2022-11-29T17:07:22.897Z,13.93
2022-11-29T17:09:50.944Z,12.43
2022-11-29T17:12:20.209Z,13.17
2022-11-29T17:14:48.483Z,12.57
2022-11-29T17:17:18.900Z,12.87
2022-11-29T17:19:46.944Z,13.40
2022-11-29T17:22:16.263Z,12.47
2022-11-29T17:24:48.397Z,11.30
2022-11-29T17:27:16.715Z,12.43
2022-11-29T17:29:45.007Z,12.67
2022-11-29T17:32:13.165Z,12.23
2022-11-29T17:34:41.162Z,12.40
2022-11-29T17:37:09.335Z,11.53
2022-11-29T17:39:38.600Z,11.80
2022-11-29T17:42:06.596Z,12.37
2022-11-29T17:44:36.861Z,12.27
2022-11-29T17:47:05.206Z,12.50
2022-11-29T17:49:33.273Z,12.97
2022-11-29T17:52:01.389Z,13.30
2022-11-29T17:54:34.017Z,12.07
2022-11-29T17:57:04.546Z,12.67
2022-11-29T17:59:32.642Z,12.80
2022-11-29T18:02:02.070Z,12.37
2022-11-29T18:04:30.311Z,12.70
2022-11-29T18:06:58.794Z,12.23
2022-11-29T18:09:26.958Z,12.20
2022-11-29T18:11:54.917Z,12.10
2022-11-29T18:14:28.452Z,12.13
2022-11-29T18:16:56.683Z,11.87
2022-11-29T18:19:25.462Z,12.73
2022-11-29T18:21:53.434Z,14.53
2022-11-29T18:24:21.430Z,15.17
2022-11-29T18:26:49.580Z,14.77
2022-11-29T18:29:17.788Z,14.40
2022-11-29T18:31:48.008Z,14.17
2022-11-29T18:34:16.570Z,15.00
2022-11-29T18:36:46.042Z,19.90
2022-11-29T18:39:16.256Z,16.33
2022-11-29T18:41:46.230Z,15.27
2022-11-29T18:44:16.494Z,14.40
2022-11-29T18:46:47.165Z,15.03
2022-11-29T18:49:16.873Z,14.10
2022-11-29T18:51:46.165Z,13.33
2022-11-29T18:54:14.668Z,13.50
2022-11-29T18:56:43.700Z,13.63
2022-11-29T18:59:14.777Z,14.03
2022-11-29T19:01:45.111Z,13.07
2022-11-29T19:04:16.901Z,13.60
2022-11-29T19:06:45.156Z,13.77
2022-11-29T19:09:15.703Z,13.57
2022-11-29T19:11:43.829Z,13.37
2022-11-29T19:14:13.363Z,13.23
2022-11-29T19:16:46.884Z,13.60
2022-11-29T19:19:39.553Z,13.47
2022-11-29T19:22:08.191Z,13.23
2022-11-29T19:24:36.584Z,14.03
2022-11-29T19:27:06.995Z,15.73
2022-11-29T19:29:39.783Z,16.77
2022-11-29T19:32:09.656Z,16.17
2022-11-29T19:34:42.789Z,15.90
2022-11-29T19:37:12.769Z,14.13
2022-11-29T19:40:04.685Z,13.17
2022-11-29T19:42:54.231Z,13.10
2022-11-29T19:45:27.617Z,13.93
2022-11-29T19:48:00.109Z,14.90
2022-11-29T19:50:31.396Z,14.23
2022-11-29T19:53:01.561Z,14.53
2022-11-29T19:55:45.548Z,13.97
2022-11-29T19:58:14.261Z,14.40
2022-11-29T20:00:42.503Z,15.63
2022-11-29T20:03:11.325Z,15.47
2022-11-29T20:05:43.618Z,16.60
2022-11-29T20:08:17.103Z,15.90
2022-11-29T20:11:00.315Z,16.57
2022-11-29T20:13:28.711Z,15.77
2022-11-29T20:16:01.850Z,17.10
2022-11-29T20:18:35.484Z,16.87
2022-11-29T20:21:08.059Z,16.93
2022-11-29T20:23:39.929Z,17.27
2022-11-29T20:26:16.280Z,17.17
2022-11-29T20:28:46.809Z,17.23
2022-11-29T20:31:17.897Z,17.73
2022-11-29T20:34:08.924Z,17.40
2022-11-29T20:37:01.266Z,15.93
2022-11-29T20:39:41.799Z,15.87
2022-11-29T20:42:40.709Z,15.70
2022-11-29T20:45:10.580Z,15.67
2022-11-29T20:47:46.404Z,15.53
2022-11-29T20:50:23.161Z,15.10
2022-11-29T20:53:05.129Z,15.30
2022-11-29T20:55:42.503Z,15.93
2022-11-29T20:58:16.577Z,14.70
2022-11-29T21:00:48.614Z,15.67
2022-11-29T21:03:22.618Z,14.67
2022-11-29T21:05:51.862Z,15.27
2022-11-29T21:08:22.982Z,14.70
2022-11-29T21:10:51.970Z,15.53
2022-11-29T21:13:41.703Z,15.47
2022-11-29T21:16:12.170Z,15.80
2022-11-29T21:18:41.577Z,17.50
2022-11-29T21:21:23.941Z,19.70
2022-11-29T21:24:26.171Z,17.00
2022-11-29T21:26:55.766Z,16.57
2022-11-29T21:29:25.398Z,15.60
2022-11-29T21:31:55.393Z,15.73
2022-11-29T21:34:23.842Z,14.97
2022-11-29T21:36:56.972Z,15.30
2022-11-29T21:39:31.381Z,14.77
2022-11-29T21:41:59.873Z,14.63
2022-11-29T21:44:30.417Z,13.97
2022-11-29T21:46:59.965Z,14.90
2022-11-29T21:49:28.330Z,15.43
2022-11-29T21:52:22.305Z,15.07
2022-11-29T21:54:55.532Z,15.07
2022-11-29T21:57:26.939Z,14.30
2022-11-29T21:59:54.978Z,14.23
2022-11-29T22:02:23.165Z,14.53
2022-11-29T22:04:51.355Z,15.23
2022-11-29T22:07:19.330Z,15.43
2022-11-29T22:09:48.134Z,15.60
2022-11-29T22:12:34.859Z,15.83
2022-11-29T22:15:11.126Z,14.67
2022-11-29T22:17:39.332Z,15.67
2022-11-29T22:20:10.307Z,14.30
2022-11-29T22:22:38.962Z,15.23
2022-11-29T22:25:07.800Z,14.57
2022-11-29T22:27:38.529Z,15.83
2022-11-29T22:30:08.979Z,16.23
2022-11-29T22:32:37.000Z,15.33
2022-11-29T22:35:05.312Z,15.80
2022-11-29T22:37:35.993Z,14.80
2022-11-29T22:40:04.644Z,14.47
2022-11-29T22:42:33.221Z,14.93
2022-11-29T22:45:05.582Z,15.80
2022-11-29T22:47:34.198Z,15.83
2022-11-29T22:50:02.524Z,15.07
2022-11-29T22:52:31.679Z,15.70
2022-11-29T22:55:04.499Z,16.37
2022-11-29T22:57:33.130Z,16.50
2022-11-29T23:00:05.166Z,16.53
2022-11-29T23:02:33.578Z,15.50
2022-11-29T23:05:01.813Z,16.07
2022-11-29T23:07:29.773Z,16.53
2022-11-29T23:10:00.148Z,16.00
2022-11-29T23:12:30.734Z,16.27
2022-11-29T23:15:19.573Z,15.90
2022-11-29T23:17:52.896Z,16.20
2022-11-29T23:20:21.585Z,14.80
2022-11-29T23:22:49.680Z,15.53
2022-11-29T23:25:18.648Z,16.03
2022-11-29T23:27:47.364Z,15.97
2022-11-29T23:30:16.267Z,15.50
2022-11-29T23:32:45.212Z,15.30
2022-11-29T23:35:17.069Z,15.33
2022-11-29T23:37:47.735Z,15.50
2022-11-29T23:40:37.117Z,15.57
2022-11-29T23:43:05.997Z,15.07
2022-11-29T23:45:41.951Z,15.57
2022-11-29T23:48:10.463Z,16.43
2022-11-29T23:50:41.139Z,15.40
2022-11-29T23:53:09.638Z,15.47
2022-11-29T23:55:39.177Z,15.10
2022-11-29T23:58:12.959Z,15.83
